sensor_id;sensor_type;location;lat;lon;timestamp;P1;durP1;ratioP1;P2;durP2;ratioP2
31206;SDS011;17834;52.992;8.856;2022-08-03T00:01:25;4.80;;;3.40;;
31206;SDS011;17834;52.992;8.856;2022-08-03T00:03:51;4.38;;;3.05;;
31206;SDS011;17834;52.992;8.856;2022-08-03T00:06:17;4.15;;;2.85;;
31206;SDS011;17834;52.992;8.856;2022-08-03T00:08:43;4.50;;;3.15;;
31206;SDS011;17834;52.992;8.856;2022-08-03T00:11:09;7.55;;;3.25;;
31206;SDS011;17834;52.992;8.856;2022-08-03T00:13:35;5.97;;;3.75;;
31206;SDS011;17834;52.992;8.856;2022-08-03T00:16:01;5.88;;;3.60;;
31206;SDS011;17834;52.992;8.856;2022-08-03T00:18:27;5.25;;;3.35;;
31206;SDS011;17834;52.992;8.856;2022-08-03T00:20:53;3.90;;;3.10;;
31206;SDS011;17834;52.992;8.856;2022-08-03T00:23:19;6.53;;;3.65;;
31206;SDS011;17834;52.992;8.856;2022-08-03T00:25:45;5.97;;;3.47;;
31206;SDS011;17834;52.992;8.856;2022-08-03T00:28:11;4.72;;;3.40;;
31206;SDS011;17834;52.992;8.856;2022-08-03T00:30:37;4.85;;;3.22;;
31206;SDS011;17834;52.992;8.856;2022-08-03T00:33:03;5.10;;;3.58;;
31206;SDS011;17834;52.992;8.856;2022-08-03T00:35:29;6.43;;;3.42;;
31206;SDS011;17834;52.992;8.856;2022-08-03T00:37:55;5.03;;;3.03;;
31206;SDS011;17834;52.992;8.856;2022-08-03T00:40:22;4.60;;;3.15;;
31206;SDS011;17834;52.992;8.856;2022-08-03T00:43:02;4.53;;;3.38;;
31206;SDS011;17834;52.992;8.856;2022-08-03T00:45:29;5.05;;;3.40;;
31206;SDS011;17834;52.992;8.856;2022-08-03T00:47:56;7.03;;;3.85;;
31206;SDS011;17834;52.992;8.856;2022-08-03T00:50:23;8.23;;;4.00;;
31206;SDS011;17834;52.992;8.856;2022-08-03T00:52:51;4.65;;;3.17;;
31206;SDS011;17834;52.992;8.856;2022-08-03T00:55:18;5.10;;;3.30;;
31206;SDS011;17834;52.992;8.856;2022-08-03T00:57:44;4.47;;;3.45;;
31206;SDS011;17834;52.992;8.856;2022-08-03T01:00:11;4.18;;;3.00;;
31206;SDS011;17834;52.992;8.856;2022-08-03T01:02:38;5.18;;;3.70;;
31206;SDS011;17834;52.992;8.856;2022-08-03T01:05:04;4.70;;;3.42;;
31206;SDS011;17834;52.992;8.856;2022-08-03T01:10:30;7.22;;;3.45;;
31206;SDS011;17834;52.992;8.856;2022-08-03T01:13:44;6.10;;;3.60;;
31206;SDS011;17834;52.992;8.856;2022-08-03T01:18:52;4.80;;;3.13;;
31206;SDS011;17834;52.992;8.856;2022-08-03T01:20:58;5.85;;;4.28;;
31206;SDS011;17834;52.992;8.856;2022-08-03T01:26:25;5.53;;;3.55;;
31206;SDS011;17834;52.992;8.856;2022-08-03T01:31:47;5.55;;;3.55;;
31206;SDS011;17834;52.992;8.856;2022-08-03T01:34:17;4.85;;;3.28;;
31206;SDS011;17834;52.992;8.856;2022-08-03T01:36:47;5.60;;;3.13;;
31206;SDS011;17834;52.992;8.856;2022-08-03T01:39:15;7.43;;;3.72;;
31206;SDS011;17834;52.992;8.856;2022-08-03T01:42:03;4.63;;;3.30;;
31206;SDS011;17834;52.992;8.856;2022-08-03T01:44:30;5.30;;;3.58;;
31206;SDS011;17834;52.992;8.856;2022-08-03T01:46:58;4.88;;;3.50;;
31206;SDS011;17834;52.992;8.856;2022-08-03T01:49:25;4.75;;;3.60;;
31206;SDS011;17834;52.992;8.856;2022-08-03T01:51:52;4.60;;;3.28;;
31206;SDS011;17834;52.992;8.856;2022-08-03T01:54:18;6.65;;;3.40;;
31206;SDS011;17834;52.992;8.856;2022-08-03T01:56:45;6.65;;;4.10;;
31206;SDS011;17834;52.992;8.856;2022-08-03T01:59:13;5.75;;;3.85;;
31206;SDS011;17834;52.992;8.856;2022-08-03T02:01:41;6.55;;;3.92;;
31206;SDS011;17834;52.992;8.856;2022-08-03T02:04:07;4.45;;;3.33;;
31206;SDS011;17834;52.992;8.856;2022-08-03T02:06:34;6.20;;;4.00;;
31206;SDS011;17834;52.992;8.856;2022-08-03T02:09:00;4.40;;;3.20;;
31206;SDS011;17834;52.992;8.856;2022-08-03T02:11:27;6.75;;;3.55;;
31206;SDS011;17834;52.992;8.856;2022-08-03T02:13:55;5.57;;;4.10;;
31206;SDS011;17834;52.992;8.856;2022-08-03T02:16:22;5.82;;;4.18;;
31206;SDS011;17834;52.992;8.856;2022-08-03T02:18:49;5.28;;;3.65;;
31206;SDS011;17834;52.992;8.856;2022-08-03T02:21:15;5.00;;;3.70;;
31206;SDS011;17834;52.992;8.856;2022-08-03T02:23:41;5.05;;;3.40;;
31206;SDS011;17834;52.992;8.856;2022-08-03T02:26:08;5.45;;;3.88;;
31206;SDS011;17834;52.992;8.856;2022-08-03T02:28:36;4.38;;;3.28;;
31206;SDS011;17834;52.992;8.856;2022-08-03T02:31:07;6.45;;;4.18;;
31206;SDS011;17834;52.992;8.856;2022-08-03T02:33:36;5.50;;;3.58;;
31206;SDS011;17834;52.992;8.856;2022-08-03T02:36:03;9.32;;;4.15;;
31206;SDS011;17834;52.992;8.856;2022-08-03T02:38:32;5.82;;;4.07;;
31206;SDS011;17834;52.992;8.856;2022-08-03T02:40:58;5.30;;;3.78;;
31206;SDS011;17834;52.992;8.856;2022-08-03T02:43:25;6.28;;;4.18;;
31206;SDS011;17834;52.992;8.856;2022-08-03T02:45:54;6.05;;;4.22;;
31206;SDS011;17834;52.992;8.856;2022-08-03T02:48:21;5.28;;;3.80;;
31206;SDS011;17834;52.992;8.856;2022-08-03T02:50:48;5.07;;;3.65;;
31206;SDS011;17834;52.992;8.856;2022-08-03T02:53:16;5.88;;;4.05;;
31206;SDS011;17834;52.992;8.856;2022-08-03T02:55:42;6.47;;;4.30;;
31206;SDS011;17834;52.992;8.856;2022-08-03T02:58:09;6.03;;;4.35;;
31206;SDS011;17834;52.992;8.856;2022-08-03T03:00:36;5.80;;;3.90;;
31206;SDS011;17834;52.992;8.856;2022-08-03T03:03:03;8.57;;;4.13;;
31206;SDS011;17834;52.992;8.856;2022-08-03T03:05:30;6.50;;;4.10;;
31206;SDS011;17834;52.992;8.856;2022-08-03T03:07:56;6.20;;;3.97;;
31206;SDS011;17834;52.992;8.856;2022-08-03T03:10:22;5.90;;;4.32;;
31206;SDS011;17834;52.992;8.856;2022-08-03T03:12:50;6.30;;;4.03;;
31206;SDS011;17834;52.992;8.856;2022-08-03T03:15:17;5.72;;;4.18;;
31206;SDS011;17834;52.992;8.856;2022-08-03T03:17:43;6.63;;;4.50;;
31206;SDS011;17834;52.992;8.856;2022-08-03T03:20:09;5.35;;;4.43;;
31206;SDS011;17834;52.992;8.856;2022-08-03T03:22:35;7.03;;;4.45;;
31206;SDS011;17834;52.992;8.856;2022-08-03T03:25:02;6.03;;;4.50;;
31206;SDS011;17834;52.992;8.856;2022-08-03T03:27:28;6.82;;;4.78;;
31206;SDS011;17834;52.992;8.856;2022-08-03T03:29:55;7.60;;;4.95;;
31206;SDS011;17834;52.992;8.856;2022-08-03T03:32:22;6.78;;;4.75;;
31206;SDS011;17834;52.992;8.856;2022-08-03T03:34:48;6.57;;;4.72;;
31206;SDS011;17834;52.992;8.856;2022-08-03T03:37:14;6.03;;;4.40;;
31206;SDS011;17834;52.992;8.856;2022-08-03T03:39:40;5.93;;;4.53;;
31206;SDS011;17834;52.992;8.856;2022-08-03T03:42:06;6.65;;;4.95;;
31206;SDS011;17834;52.992;8.856;2022-08-03T03:44:32;8.02;;;5.18;;
31206;SDS011;17834;52.992;8.856;2022-08-03T03:46:58;6.60;;;4.72;;
31206;SDS011;17834;52.992;8.856;2022-08-03T03:49:25;7.30;;;5.00;;
31206;SDS011;17834;52.992;8.856;2022-08-03T03:51:52;7.97;;;4.88;;
31206;SDS011;17834;52.992;8.856;2022-08-03T03:54:18;7.70;;;5.47;;
31206;SDS011;17834;52.992;8.856;2022-08-03T03:56:45;7.75;;;5.32;;
31206;SDS011;17834;52.992;8.856;2022-08-03T03:59:11;8.57;;;5.47;;
31206;SDS011;17834;52.992;8.856;2022-08-03T04:01:37;6.57;;;4.90;;
31206;SDS011;17834;52.992;8.856;2022-08-03T04:04:03;7.93;;;4.85;;
31206;SDS011;17834;52.992;8.856;2022-08-03T04:06:48;8.43;;;4.72;;
31206;SDS011;17834;52.992;8.856;2022-08-03T04:09:37;7.80;;;6.00;;
31206;SDS011;17834;52.992;8.856;2022-08-03T04:12:23;6.80;;;4.75;;
31206;SDS011;17834;52.992;8.856;2022-08-03T04:14:51;8.73;;;5.43;;
31206;SDS011;17834;52.992;8.856;2022-08-03T04:17:18;8.85;;;5.32;;
31206;SDS011;17834;52.992;8.856;2022-08-03T04:19:48;6.65;;;4.95;;
31206;SDS011;17834;52.992;8.856;2022-08-03T04:22:21;7.75;;;5.35;;
31206;SDS011;17834;52.992;8.856;2022-08-03T04:24:51;7.93;;;5.25;;
31206;SDS011;17834;52.992;8.856;2022-08-03T04:27:20;8.27;;;5.85;;
31206;SDS011;17834;52.992;8.856;2022-08-03T04:29:48;8.38;;;5.63;;
31206;SDS011;17834;52.992;8.856;2022-08-03T04:32:15;9.82;;;6.90;;
31206;SDS011;17834;52.992;8.856;2022-08-03T04:34:41;8.70;;;6.20;;
31206;SDS011;17834;52.992;8.856;2022-08-03T04:37:10;8.73;;;6.07;;
31206;SDS011;17834;52.992;8.856;2022-08-03T04:39:36;7.72;;;4.97;;
31206;SDS011;17834;52.992;8.856;2022-08-03T04:42:05;6.43;;;4.65;;
31206;SDS011;17834;52.992;8.856;2022-08-03T04:44:34;6.45;;;4.90;;
31206;SDS011;17834;52.992;8.856;2022-08-03T04:47:01;6.55;;;4.55;;
31206;SDS011;17834;52.992;8.856;2022-08-03T04:49:27;8.18;;;4.78;;
31206;SDS011;17834;52.992;8.856;2022-08-03T04:51:53;6.05;;;4.32;;
31206;SDS011;17834;52.992;8.856;2022-08-03T04:54:19;5.15;;;4.20;;
31206;SDS011;17834;52.992;8.856;2022-08-03T04:56:45;7.28;;;4.63;;
31206;SDS011;17834;52.992;8.856;2022-08-03T04:59:11;6.22;;;4.93;;
31206;SDS011;17834;52.992;8.856;2022-08-03T05:01:40;7.72;;;4.93;;
31206;SDS011;17834;52.992;8.856;2022-08-03T05:04:06;12.90;;;4.95;;
31206;SDS011;17834;52.992;8.856;2022-08-03T05:06:32;5.28;;;4.00;;
31206;SDS011;17834;52.992;8.856;2022-08-03T05:08:58;8.00;;;4.38;;
31206;SDS011;17834;52.992;8.856;2022-08-03T05:11:24;6.03;;;3.97;;
31206;SDS011;17834;52.992;8.856;2022-08-03T05:13:50;8.23;;;4.63;;
31206;SDS011;17834;52.992;8.856;2022-08-03T05:16:16;7.63;;;5.03;;
31206;SDS011;17834;52.992;8.856;2022-08-03T05:18:42;6.07;;;4.18;;
31206;SDS011;17834;52.992;8.856;2022-08-03T05:21:10;5.38;;;4.13;;
31206;SDS011;17834;52.992;8.856;2022-08-03T05:23:38;6.03;;;4.50;;
31206;SDS011;17834;52.992;8.856;2022-08-03T05:26:05;7.20;;;4.65;;
31206;SDS011;17834;52.992;8.856;2022-08-03T05:28:32;5.10;;;4.07;;
31206;SDS011;17834;52.992;8.856;2022-08-03T05:30:58;6.40;;;4.22;;
31206;SDS011;17834;52.992;8.856;2022-08-03T05:33:24;5.82;;;3.83;;
31206;SDS011;17834;52.992;8.856;2022-08-03T05:35:50;5.93;;;3.92;;
31206;SDS011;17834;52.992;8.856;2022-08-03T05:38:16;6.18;;;4.22;;
31206;SDS011;17834;52.992;8.856;2022-08-03T05:40:42;6.90;;;4.53;;
31206;SDS011;17834;52.992;8.856;2022-08-03T05:43:08;6.72;;;4.22;;
31206;SDS011;17834;52.992;8.856;2022-08-03T05:45:35;5.10;;;3.95;;
31206;SDS011;17834;52.992;8.856;2022-08-03T05:48:02;7.97;;;4.22;;
31206;SDS011;17834;52.992;8.856;2022-08-03T05:50:28;4.55;;;3.60;;
31206;SDS011;17834;52.992;8.856;2022-08-03T05:52:54;5.60;;;3.80;;
31206;SDS011;17834;52.992;8.856;2022-08-03T05:55:23;5.75;;;3.55;;
31206;SDS011;17834;52.992;8.856;2022-08-03T05:57:49;5.70;;;3.20;;
31206;SDS011;17834;52.992;8.856;2022-08-03T06:00:15;4.97;;;2.85;;
31206;SDS011;17834;52.992;8.856;2022-08-03T06:02:42;5.35;;;3.47;;
31206;SDS011;17834;52.992;8.856;2022-08-03T06:05:08;4.30;;;3.00;;
31206;SDS011;17834;52.992;8.856;2022-08-03T06:07:34;5.32;;;3.15;;
31206;SDS011;17834;52.992;8.856;2022-08-03T06:10:00;4.75;;;2.70;;
31206;SDS011;17834;52.992;8.856;2022-08-03T06:12:27;3.95;;;2.63;;
31206;SDS011;17834;52.992;8.856;2022-08-03T06:14:52;3.90;;;2.55;;
31206;SDS011;17834;52.992;8.856;2022-08-03T06:17:18;4.07;;;2.60;;
31206;SDS011;17834;52.992;8.856;2022-08-03T06:19:44;3.13;;;2.30;;
31206;SDS011;17834;52.992;8.856;2022-08-03T06:22:10;5.80;;;2.45;;
31206;SDS011;17834;52.992;8.856;2022-08-03T06:24:36;3.55;;;2.50;;
31206;SDS011;17834;52.992;8.856;2022-08-03T06:27:02;4.03;;;2.10;;
31206;SDS011;17834;52.992;8.856;2022-08-03T06:29:28;4.65;;;2.50;;
31206;SDS011;17834;52.992;8.856;2022-08-03T06:31:54;4.43;;;2.33;;
31206;SDS011;17834;52.992;8.856;2022-08-03T06:34:20;6.00;;;2.47;;
31206;SDS011;17834;52.992;8.856;2022-08-03T06:36:46;4.45;;;2.63;;
31206;SDS011;17834;52.992;8.856;2022-08-03T06:39:14;4.82;;;2.58;;
31206;SDS011;17834;52.992;8.856;2022-08-03T06:41:41;5.45;;;2.50;;
31206;SDS011;17834;52.992;8.856;2022-08-03T06:44:07;5.13;;;2.30;;
31206;SDS011;17834;52.992;8.856;2022-08-03T06:46:33;5.72;;;2.78;;
31206;SDS011;17834;52.992;8.856;2022-08-03T06:48:59;5.90;;;2.90;;
31206;SDS011;17834;52.992;8.856;2022-08-03T06:51:25;4.45;;;2.95;;
31206;SDS011;17834;52.992;8.856;2022-08-03T06:53:51;7.20;;;3.00;;
31206;SDS011;17834;52.992;8.856;2022-08-03T06:56:17;6.75;;;2.58;;
31206;SDS011;17834;52.992;8.856;2022-08-03T06:58:44;4.30;;;2.88;;
31206;SDS011;17834;52.992;8.856;2022-08-03T07:01:11;4.63;;;2.78;;
31206;SDS011;17834;52.992;8.856;2022-08-03T07:03:37;4.75;;;2.53;;
31206;SDS011;17834;52.992;8.856;2022-08-03T07:06:04;4.00;;;2.10;;
31206;SDS011;17834;52.992;8.856;2022-08-03T07:08:30;5.88;;;3.00;;
31206;SDS011;17834;52.992;8.856;2022-08-03T07:10:56;6.97;;;2.72;;
31206;SDS011;17834;52.992;8.856;2022-08-03T07:13:22;4.30;;;2.42;;
31206;SDS011;17834;52.992;8.856;2022-08-03T07:15:48;4.90;;;2.60;;
31206;SDS011;17834;52.992;8.856;2022-08-03T07:18:14;5.57;;;2.72;;
31206;SDS011;17834;52.992;8.856;2022-08-03T07:20:40;4.78;;;2.63;;
31206;SDS011;17834;52.992;8.856;2022-08-03T07:23:06;4.97;;;2.50;;
31206;SDS011;17834;52.992;8.856;2022-08-03T07:25:33;3.95;;;2.28;;
31206;SDS011;17834;52.992;8.856;2022-08-03T07:27:59;5.43;;;2.40;;
31206;SDS011;17834;52.992;8.856;2022-08-03T07:30:25;4.85;;;1.95;;
31206;SDS011;17834;52.992;8.856;2022-08-03T07:32:51;3.05;;;2.03;;
31206;SDS011;17834;52.992;8.856;2022-08-03T07:35:17;7.97;;;2.20;;
31206;SDS011;17834;52.992;8.856;2022-08-03T07:37:43;6.68;;;2.25;;
31206;SDS011;17834;52.992;8.856;2022-08-03T07:40:09;7.47;;;2.25;;
31206;SDS011;17834;52.992;8.856;2022-08-03T07:42:35;7.75;;;2.13;;
31206;SDS011;17834;52.992;8.856;2022-08-03T07:45:01;2.70;;;1.77;;
31206;SDS011;17834;52.992;8.856;2022-08-03T07:47:28;5.63;;;1.70;;
31206;SDS011;17834;52.992;8.856;2022-08-03T07:49:55;6.90;;;1.85;;
31206;SDS011;17834;52.992;8.856;2022-08-03T07:52:21;3.22;;;1.65;;
31206;SDS011;17834;52.992;8.856;2022-08-03T07:55:05;7.85;;;1.95;;
31206;SDS011;17834;52.992;8.856;2022-08-03T07:57:32;2.58;;;1.45;;
31206;SDS011;17834;52.992;8.856;2022-08-03T07:59:58;4.68;;;2.15;;
31206;SDS011;17834;52.992;8.856;2022-08-03T08:02:24;2.63;;;1.65;;
31206;SDS011;17834;52.992;8.856;2022-08-03T08:04:50;4.93;;;2.33;;
31206;SDS011;17834;52.992;8.856;2022-08-03T08:07:16;4.25;;;1.50;;
31206;SDS011;17834;52.992;8.856;2022-08-03T08:09:42;3.80;;;1.85;;
31206;SDS011;17834;52.992;8.856;2022-08-03T08:12:08;5.35;;;2.05;;
31206;SDS011;17834;52.992;8.856;2022-08-03T08:14:36;4.47;;;1.70;;
31206;SDS011;17834;52.992;8.856;2022-08-03T08:17:02;5.35;;;1.65;;
31206;SDS011;17834;52.992;8.856;2022-08-03T08:19:28;4.68;;;1.70;;
31206;SDS011;17834;52.992;8.856;2022-08-03T08:21:54;6.97;;;1.80;;
31206;SDS011;17834;52.992;8.856;2022-08-03T08:24:20;3.17;;;2.00;;
31206;SDS011;17834;52.992;8.856;2022-08-03T08:26:46;4.07;;;1.50;;
31206;SDS011;17834;52.992;8.856;2022-08-03T08:29:12;3.88;;;1.50;;
31206;SDS011;17834;52.992;8.856;2022-08-03T08:31:38;4.22;;;1.58;;
31206;SDS011;17834;52.992;8.856;2022-08-03T08:34:04;4.60;;;1.60;;
31206;SDS011;17834;52.992;8.856;2022-08-03T08:36:34;2.65;;;1.30;;
31206;SDS011;17834;52.992;8.856;2022-08-03T08:39:00;3.95;;;1.10;;
31206;SDS011;17834;52.992;8.856;2022-08-03T08:41:26;3.85;;;1.42;;
31206;SDS011;17834;52.992;8.856;2022-08-03T08:43:52;3.30;;;1.48;;
31206;SDS011;17834;52.992;8.856;2022-08-03T08:46:18;3.67;;;1.30;;
31206;SDS011;17834;52.992;8.856;2022-08-03T08:48:45;4.53;;;2.22;;
31206;SDS011;17834;52.992;8.856;2022-08-03T08:51:11;2.45;;;1.67;;
31206;SDS011;17834;52.992;8.856;2022-08-03T08:53:38;5.78;;;1.50;;
31206;SDS011;17834;52.992;8.856;2022-08-03T08:56:05;3.03;;;1.15;;
31206;SDS011;17834;52.992;8.856;2022-08-03T08:58:34;3.42;;;1.60;;
31206;SDS011;17834;52.992;8.856;2022-08-03T09:01:01;3.25;;;1.50;;
31206;SDS011;17834;52.992;8.856;2022-08-03T09:03:28;3.30;;;1.63;;
31206;SDS011;17834;52.992;8.856;2022-08-03T09:05:54;5.20;;;1.40;;
31206;SDS011;17834;52.992;8.856;2022-08-03T09:08:20;4.80;;;1.42;;
31206;SDS011;17834;52.992;8.856;2022-08-03T09:10:47;2.00;;;1.20;;
31206;SDS011;17834;52.992;8.856;2022-08-03T09:13:13;5.03;;;1.33;;
31206;SDS011;17834;52.992;8.856;2022-08-03T09:15:39;3.55;;;1.45;;
31206;SDS011;17834;52.992;8.856;2022-08-03T09:18:06;2.13;;;1.30;;
31206;SDS011;17834;52.992;8.856;2022-08-03T09:20:33;4.00;;;2.05;;
31206;SDS011;17834;52.992;8.856;2022-08-03T09:23:02;3.75;;;1.67;;
31206;SDS011;17834;52.992;8.856;2022-08-03T09:28:10;2.55;;;1.27;;
31206;SDS011;17834;52.992;8.856;2022-08-03T09:30:38;4.53;;;1.02;;
31206;SDS011;17834;52.992;8.856;2022-08-03T09:33:08;3.38;;;1.42;;
31206;SDS011;17834;52.992;8.856;2022-08-03T09:35:41;4.53;;;1.65;;
31206;SDS011;17834;52.992;8.856;2022-08-03T09:38:17;2.50;;;1.30;;
31206;SDS011;17834;52.992;8.856;2022-08-03T09:40:44;3.95;;;1.40;;
31206;SDS011;17834;52.992;8.856;2022-08-03T09:43:10;6.15;;;1.45;;
31206;SDS011;17834;52.992;8.856;2022-08-03T09:45:37;3.60;;;1.40;;
31206;SDS011;17834;52.992;8.856;2022-08-03T09:50:48;4.30;;;1.50;;
31206;SDS011;17834;52.992;8.856;2022-08-03T09:53:14;2.95;;;1.50;;
31206;SDS011;17834;52.992;8.856;2022-08-03T09:55:48;5.78;;;1.60;;
31206;SDS011;17834;52.992;8.856;2022-08-03T09:58:14;3.38;;;1.90;;
31206;SDS011;17834;52.992;8.856;2022-08-03T10:03:26;4.22;;;1.60;;
31206;SDS011;17834;52.992;8.856;2022-08-03T10:05:53;5.28;;;2.03;;
31206;SDS011;17834;52.992;8.856;2022-08-03T10:08:20;4.93;;;1.30;;
31206;SDS011;17834;52.992;8.856;2022-08-03T10:10:47;4.00;;;1.70;;
31206;SDS011;17834;52.992;8.856;2022-08-03T10:13:14;5.55;;;1.50;;
31206;SDS011;17834;52.992;8.856;2022-08-03T10:15:40;10.75;;;2.50;;
31206;SDS011;17834;52.992;8.856;2022-08-03T10:18:06;4.28;;;1.92;;
31206;SDS011;17834;52.992;8.856;2022-08-03T10:20:45;3.75;;;1.50;;
31206;SDS011;17834;52.992;8.856;2022-08-03T10:23:13;5.85;;;2.60;;
31206;SDS011;17834;52.992;8.856;2022-08-03T10:25:41;3.28;;;1.55;;
31206;SDS011;17834;52.992;8.856;2022-08-03T10:28:09;3.40;;;1.42;;
31206;SDS011;17834;52.992;8.856;2022-08-03T10:30:38;3.97;;;1.63;;
31206;SDS011;17834;52.992;8.856;2022-08-03T10:33:10;4.60;;;1.48;;
31206;SDS011;17834;52.992;8.856;2022-08-03T10:35:37;4.05;;;1.55;;
31206;SDS011;17834;52.992;8.856;2022-08-03T10:38:39;4.53;;;2.05;;
31206;SDS011;17834;52.992;8.856;2022-08-03T10:40:57;4.60;;;1.90;;
31206;SDS011;17834;52.992;8.856;2022-08-03T10:43:27;5.25;;;1.40;;
31206;SDS011;17834;52.992;8.856;2022-08-03T10:45:57;5.97;;;1.90;;
31206;SDS011;17834;52.992;8.856;2022-08-03T10:48:23;2.92;;;1.35;;
31206;SDS011;17834;52.992;8.856;2022-08-03T10:50:50;3.05;;;1.38;;
31206;SDS011;17834;52.992;8.856;2022-08-03T10:53:16;3.10;;;1.40;;
31206;SDS011;17834;52.992;8.856;2022-08-03T10:55:58;3.90;;;1.42;;
31206;SDS011;17834;52.992;8.856;2022-08-03T10:58:47;8.13;;;1.92;;
31206;SDS011;17834;52.992;8.856;2022-08-03T11:01:13;3.08;;;1.20;;
31206;SDS011;17834;52.992;8.856;2022-08-03T11:06:19;4.78;;;1.48;;
31206;SDS011;17834;52.992;8.856;2022-08-03T11:08:48;7.15;;;1.63;;
31206;SDS011;17834;52.992;8.856;2022-08-03T11:14:00;5.95;;;1.90;;
31206;SDS011;17834;52.992;8.856;2022-08-03T11:16:27;5.15;;;1.30;;
31206;SDS011;17834;52.992;8.856;2022-08-03T11:21:51;3.55;;;1.40;;
31206;SDS011;17834;52.992;8.856;2022-08-03T11:26:34;2.78;;;1.45;;
31206;SDS011;17834;52.992;8.856;2022-08-03T11:31:44;5.63;;;1.20;;
31206;SDS011;17834;52.992;8.856;2022-08-03T11:34:11;3.63;;;1.27;;
31206;SDS011;17834;52.992;8.856;2022-08-03T11:39:36;3.55;;;1.60;;
31206;SDS011;17834;52.992;8.856;2022-08-03T11:42:47;3.53;;;1.27;;
31206;SDS011;17834;52.992;8.856;2022-08-03T11:44:57;3.95;;;1.20;;
31206;SDS011;17834;52.992;8.856;2022-08-03T11:47:24;2.95;;;1.45;;
31206;SDS011;17834;52.992;8.856;2022-08-03T11:49:52;5.03;;;1.17;;
31206;SDS011;17834;52.992;8.856;2022-08-03T11:52:19;3.88;;;1.08;;
31206;SDS011;17834;52.992;8.856;2022-08-03T11:54:45;3.30;;;0.93;;
31206;SDS011;17834;52.992;8.856;2022-08-03T11:57:27;5.97;;;1.80;;
31206;SDS011;17834;52.992;8.856;2022-08-03T11:59:53;8.50;;;1.88;;
31206;SDS011;17834;52.992;8.856;2022-08-03T12:02:19;2.72;;;1.23;;
31206;SDS011;17834;52.992;8.856;2022-08-03T12:04:52;3.22;;;1.42;;
31206;SDS011;17834;52.992;8.856;2022-08-03T12:07:22;4.15;;;1.20;;
31206;SDS011;17834;52.992;8.856;2022-08-03T12:10:07;2.65;;;1.02;;
31206;SDS011;17834;52.992;8.856;2022-08-03T12:12:33;3.55;;;1.08;;
31206;SDS011;17834;52.992;8.856;2022-08-03T12:14:59;3.67;;;1.60;;
31206;SDS011;17834;52.992;8.856;2022-08-03T12:17:32;4.20;;;1.38;;
31206;SDS011;17834;52.992;8.856;2022-08-03T12:19:58;4.57;;;1.33;;
31206;SDS011;17834;52.992;8.856;2022-08-03T12:22:31;4.45;;;1.10;;
31206;SDS011;17834;52.992;8.856;2022-08-03T12:24:57;5.70;;;1.27;;
31206;SDS011;17834;52.992;8.856;2022-08-03T12:27:23;3.72;;;1.13;;
31206;SDS011;17834;52.992;8.856;2022-08-03T12:29:50;7.55;;;1.40;;
31206;SDS011;17834;52.992;8.856;2022-08-03T12:32:17;3.75;;;1.27;;
31206;SDS011;17834;52.992;8.856;2022-08-03T12:34:44;6.18;;;1.92;;
31206;SDS011;17834;52.992;8.856;2022-08-03T12:37:10;3.92;;;1.23;;
31206;SDS011;17834;52.992;8.856;2022-08-03T12:39:36;3.78;;;1.50;;
31206;SDS011;17834;52.992;8.856;2022-08-03T12:42:02;4.47;;;1.10;;
31206;SDS011;17834;52.992;8.856;2022-08-03T12:44:29;4.15;;;1.67;;
31206;SDS011;17834;52.992;8.856;2022-08-03T12:46:59;3.25;;;1.40;;
31206;SDS011;17834;52.992;8.856;2022-08-03T12:49:25;4.28;;;1.33;;
31206;SDS011;17834;52.992;8.856;2022-08-03T12:54:18;7.03;;;1.50;;
31206;SDS011;17834;52.992;8.856;2022-08-03T12:57:06;5.22;;;1.40;;
31206;SDS011;17834;52.992;8.856;2022-08-03T12:59:34;5.97;;;1.50;;
31206;SDS011;17834;52.992;8.856;2022-08-03T13:02:03;4.38;;;1.52;;
31206;SDS011;17834;52.992;8.856;2022-08-03T13:07:06;4.25;;;1.33;;
31206;SDS011;17834;52.992;8.856;2022-08-03T13:09:42;6.55;;;2.55;;
31206;SDS011;17834;52.992;8.856;2022-08-03T13:12:09;7.65;;;2.00;;
31206;SDS011;17834;52.992;8.856;2022-08-03T13:14:36;6.43;;;1.80;;
31206;SDS011;17834;52.992;8.856;2022-08-03T13:17:03;8.70;;;1.80;;
31206;SDS011;17834;52.992;8.856;2022-08-03T13:19:30;7.28;;;1.95;;
31206;SDS011;17834;52.992;8.856;2022-08-03T13:21:56;6.70;;;1.83;;
31206;SDS011;17834;52.992;8.856;2022-08-03T13:24:22;5.72;;;1.60;;
31206;SDS011;17834;52.992;8.856;2022-08-03T13:26:48;5.20;;;1.50;;
31206;SDS011;17834;52.992;8.856;2022-08-03T13:29:15;6.88;;;1.60;;
31206;SDS011;17834;52.992;8.856;2022-08-03T13:31:41;2.30;;;1.13;;
31206;SDS011;17834;52.992;8.856;2022-08-03T13:34:07;4.80;;;1.85;;
31206;SDS011;17834;52.992;8.856;2022-08-03T13:36:33;6.32;;;1.58;;
31206;SDS011;17834;52.992;8.856;2022-08-03T13:38:59;9.95;;;1.45;;
31206;SDS011;17834;52.992;8.856;2022-08-03T13:41:25;5.43;;;1.38;;
31206;SDS011;17834;52.992;8.856;2022-08-03T13:43:51;5.60;;;1.20;;
31206;SDS011;17834;52.992;8.856;2022-08-03T13:46:17;5.68;;;1.52;;
31206;SDS011;17834;52.992;8.856;2022-08-03T13:48:44;5.28;;;1.48;;
31206;SDS011;17834;52.992;8.856;2022-08-03T13:51:10;7.75;;;1.20;;
31206;SDS011;17834;52.992;8.856;2022-08-03T13:53:36;6.38;;;1.85;;
31206;SDS011;17834;52.992;8.856;2022-08-03T13:56:02;3.97;;;1.60;;
31206;SDS011;17834;52.992;8.856;2022-08-03T13:58:28;5.97;;;1.35;;
31206;SDS011;17834;52.992;8.856;2022-08-03T14:00:53;4.38;;;1.60;;
31206;SDS011;17834;52.992;8.856;2022-08-03T14:03:19;5.65;;;1.35;;
31206;SDS011;17834;52.992;8.856;2022-08-03T14:05:47;4.38;;;1.27;;
31206;SDS011;17834;52.992;8.856;2022-08-03T14:08:13;6.85;;;1.60;;
31206;SDS011;17834;52.992;8.856;2022-08-03T14:10:40;4.95;;;1.30;;
31206;SDS011;17834;52.992;8.856;2022-08-03T14:13:06;4.13;;;1.58;;
31206;SDS011;17834;52.992;8.856;2022-08-03T14:15:32;6.97;;;2.08;;
31206;SDS011;17834;52.992;8.856;2022-08-03T14:17:58;5.72;;;1.73;;
31206;SDS011;17834;52.992;8.856;2022-08-03T14:20:25;4.40;;;1.48;;
31206;SDS011;17834;52.992;8.856;2022-08-03T14:22:51;4.97;;;1.30;;
31206;SDS011;17834;52.992;8.856;2022-08-03T14:25:17;5.07;;;1.10;;
31206;SDS011;17834;52.992;8.856;2022-08-03T14:27:43;4.68;;;1.33;;
31206;SDS011;17834;52.992;8.856;2022-08-03T14:30:09;4.68;;;1.13;;
31206;SDS011;17834;52.992;8.856;2022-08-03T14:32:35;11.20;;;1.50;;
31206;SDS011;17834;52.992;8.856;2022-08-03T14:35:01;4.95;;;1.13;;
31206;SDS011;17834;52.992;8.856;2022-08-03T14:37:27;4.60;;;1.60;;
31206;SDS011;17834;52.992;8.856;2022-08-03T14:39:53;6.45;;;1.35;;
31206;SDS011;17834;52.992;8.856;2022-08-03T14:42:19;5.18;;;1.70;;
31206;SDS011;17834;52.992;8.856;2022-08-03T14:44:45;8.23;;;1.85;;
31206;SDS011;17834;52.992;8.856;2022-08-03T14:47:12;6.80;;;1.13;;
31206;SDS011;17834;52.992;8.856;2022-08-03T14:49:38;2.80;;;1.45;;
31206;SDS011;17834;52.992;8.856;2022-08-03T14:52:04;4.68;;;1.42;;
31206;SDS011;17834;52.992;8.856;2022-08-03T14:54:30;9.95;;;1.40;;
31206;SDS011;17834;52.992;8.856;2022-08-03T14:56:56;4.47;;;1.20;;
31206;SDS011;17834;52.992;8.856;2022-08-03T14:59:22;4.05;;;1.45;;
31206;SDS011;17834;52.992;8.856;2022-08-03T15:01:48;6.97;;;1.67;;
31206;SDS011;17834;52.992;8.856;2022-08-03T15:04:14;6.53;;;1.50;;
31206;SDS011;17834;52.992;8.856;2022-08-03T15:06:40;6.97;;;2.15;;
31206;SDS011;17834;52.992;8.856;2022-08-03T15:09:06;7.85;;;2.30;;
31206;SDS011;17834;52.992;8.856;2022-08-03T15:11:32;6.70;;;1.50;;
31206;SDS011;17834;52.992;8.856;2022-08-03T15:13:58;4.15;;;1.40;;
31206;SDS011;17834;52.992;8.856;2022-08-03T15:16:24;10.20;;;1.60;;
31206;SDS011;17834;52.992;8.856;2022-08-03T15:18:50;7.35;;;1.35;;
31206;SDS011;17834;52.992;8.856;2022-08-03T15:21:16;6.93;;;1.35;;
31206;SDS011;17834;52.992;8.856;2022-08-03T15:23:42;7.28;;;1.85;;
31206;SDS011;17834;52.992;8.856;2022-08-03T15:26:08;6.72;;;1.92;;
31206;SDS011;17834;52.992;8.856;2022-08-03T15:28:34;6.32;;;1.58;;
31206;SDS011;17834;52.992;8.856;2022-08-03T15:31:00;4.25;;;0.98;;